createdAt,value
2023-04-08T00:00:27.820Z,99.90
2023-04-08T00:02:54.671Z,99.90
2023-04-08T00:05:21.440Z,99.90
2023-04-08T00:07:48.396Z,99.90
2023-04-08T00:10:15.410Z,99.90
2023-04-08T00:12:42.162Z,99.90
2023-04-08T00:15:09.245Z,99.90
2023-04-08T00:17:36.016Z,99.90
2023-04-08T00:20:03.135Z,99.90
2023-04-08T00:22:29.870Z,99.90
2023-04-08T00:24:58.068Z,99.90
2023-04-08T00:27:27.581Z,99.90
2023-04-08T00:29:54.415Z,99.90
2023-04-08T00:32:21.583Z,99.90
2023-04-08T00:34:48.343Z,99.90
2023-04-08T00:37:15.540Z,99.90
2023-04-08T00:39:42.375Z,99.90
2023-04-08T00:42:09.813Z,99.90
2023-04-08T00:44:36.602Z,99.90
2023-04-08T00:47:04.092Z,99.90
2023-04-08T00:49:33.971Z,99.90
2023-04-08T00:52:00.675Z,99.90
2023-04-08T00:54:27.472Z,99.90
2023-04-08T00:56:54.471Z,99.90
2023-04-08T00:59:21.208Z,99.90
2023-04-08T01:02:19.276Z,99.90
2023-04-08T01:04:52.124Z,99.90
2023-04-08T01:07:23.077Z,99.90
2023-04-08T01:09:54.660Z,99.90
2023-04-08T01:12:27.382Z,99.90
2023-04-08T01:15:03.553Z,99.90
2023-04-08T01:17:31.625Z,99.90
2023-04-08T01:20:00.431Z,99.90
2023-04-08T01:22:42.298Z,99.90
2023-04-08T01:25:15.480Z,99.90
2023-04-08T01:27:43.705Z,99.90
2023-04-08T01:30:11.523Z,99.90
2023-04-08T01:32:38.633Z,99.90
2023-04-08T01:35:05.985Z,99.90
2023-04-08T01:37:33.355Z,99.90
2023-04-08T01:40:00.858Z,99.90
2023-04-08T01:42:29.060Z,99.90
2023-04-08T01:44:57.701Z,99.90
2023-04-08T01:47:25.142Z,99.90
2023-04-08T01:49:55.607Z,99.90
2023-04-08T01:52:23.820Z,99.90
2023-04-08T01:54:50.572Z,99.90
2023-04-08T01:57:24.591Z,99.90
2023-04-08T01:59:52.880Z,99.90
2023-04-08T02:02:24.218Z,99.90
2023-04-08T02:04:51.102Z,99.90
2023-04-08T02:07:18.162Z,99.90
2023-04-08T02:09:44.882Z,99.90
2023-04-08T02:12:12.200Z,99.90
2023-04-08T02:14:39.200Z,99.90
2023-04-08T02:17:09.913Z,99.90
2023-04-08T02:19:48.085Z,99.90
2023-04-08T02:22:26.181Z,99.90
2023-04-08T02:24:53.456Z,99.90
2023-04-08T02:27:21.194Z,99.90
2023-04-08T02:29:49.809Z,99.90
2023-04-08T02:32:16.905Z,99.90
2023-04-08T02:34:43.826Z,99.90
2023-04-08T02:37:10.794Z,99.90
2023-04-08T02:39:37.568Z,99.90
2023-04-08T02:42:05.375Z,99.90
2023-04-08T02:44:32.088Z,99.90
2023-04-08T02:46:58.820Z,99.90
2023-04-08T02:49:25.640Z,99.90
2023-04-08T02:51:52.401Z,99.90
2023-04-08T02:54:19.139Z,99.90
2023-04-08T02:56:46.027Z,99.90
2023-04-08T02:59:12.734Z,99.90
2023-04-08T03:01:39.551Z,99.90
2023-04-08T03:04:06.683Z,99.90
2023-04-08T03:06:33.554Z,99.90
2023-04-08T03:09:00.259Z,99.90
2023-04-08T03:11:27.020Z,99.90
2023-04-08T03:13:53.741Z,99.90
2023-04-08T03:16:20.560Z,99.90
2023-04-08T03:18:47.449Z,99.90
2023-04-08T03:21:14.204Z,99.90
2023-04-08T03:23:40.906Z,99.90
2023-04-08T03:26:07.614Z,99.90
2023-04-08T03:28:34.343Z,99.90
2023-04-08T03:31:01.365Z,99.90
2023-04-08T03:33:28.107Z,99.90
2023-04-08T03:35:55.465Z,99.90
2023-04-08T03:38:22.225Z,99.90
2023-04-08T03:40:48.981Z,99.90
2023-04-08T03:43:15.964Z,99.90
2023-04-08T03:45:42.711Z,99.90
2023-04-08T03:48:09.533Z,99.90
2023-04-08T03:50:36.343Z,99.90
2023-04-08T03:53:03.099Z,99.90
2023-04-08T03:55:29.792Z,99.90
2023-04-08T03:57:56.492Z,99.90
2023-04-08T04:00:23.199Z,99.90
2023-04-08T04:02:50.032Z,99.90
2023-04-08T04:05:16.913Z,99.90
2023-04-08T04:07:43.674Z,99.90
2023-04-08T04:10:10.937Z,99.90
2023-04-08T04:12:37.722Z,99.90
2023-04-08T04:15:05.212Z,99.90
2023-04-08T04:17:31.927Z,99.90
2023-04-08T04:19:58.635Z,99.90
2023-04-08T04:22:25.420Z,99.90
2023-04-08T04:24:52.112Z,99.90
2023-04-08T04:27:18.823Z,99.90
2023-04-08T04:29:45.576Z,99.90
2023-04-08T04:32:12.307Z,99.90
2023-04-08T04:34:39.055Z,99.90
2023-04-08T04:37:06.185Z,99.90
2023-04-08T04:39:32.913Z,99.90
2023-04-08T04:41:59.681Z,99.90
2023-04-08T04:44:27.168Z,99.90
2023-04-08T04:46:53.992Z,99.90
2023-04-08T04:49:20.754Z,99.90
2023-04-08T04:51:47.555Z,99.90
2023-04-08T04:54:14.403Z,99.90
2023-04-08T04:56:41.697Z,99.90
2023-04-08T04:59:08.813Z,99.90
2023-04-08T05:01:35.904Z,99.90
2023-04-08T05:04:02.663Z,99.90
2023-04-08T05:06:29.378Z,99.90
2023-04-08T05:08:56.053Z,99.90
2023-04-08T05:11:22.849Z,99.90
2023-04-08T05:13:49.866Z,99.90
2023-04-08T05:16:16.994Z,99.90
2023-04-08T05:18:43.862Z,99.90
2023-04-08T05:21:10.652Z,99.90
2023-04-08T05:23:37.615Z,99.90
2023-04-08T05:26:07.761Z,99.90
2023-04-08T05:28:35.042Z,99.90
2023-04-08T05:31:01.951Z,99.90
2023-04-08T05:33:28.717Z,99.90
2023-04-08T05:35:55.593Z,99.90
2023-04-08T05:38:22.314Z,99.90
2023-04-08T05:40:49.529Z,99.90
2023-04-08T05:43:16.470Z,99.90
2023-04-08T05:45:43.225Z,99.90
2023-04-08T05:48:09.986Z,99.90
2023-04-08T05:50:37.555Z,99.90
2023-04-08T05:53:04.323Z,99.90
2023-04-08T05:55:31.072Z,99.90
2023-04-08T05:57:57.758Z,99.90
2023-04-08T06:00:24.509Z,99.90
2023-04-08T06:02:51.630Z,99.90
2023-04-08T06:05:19.199Z,99.90
2023-04-08T06:07:46.170Z,99.90
2023-04-08T06:10:13.134Z,99.90
2023-04-08T06:12:39.952Z,99.90
2023-04-08T06:15:07.923Z,99.90
2023-04-08T06:17:38.374Z,99.90
2023-04-08T06:20:11.454Z,99.90
2023-04-08T06:22:38.171Z,99.90
2023-04-08T06:25:05.322Z,99.90
2023-04-08T06:27:32.056Z,99.90
2023-04-08T06:29:59.844Z,99.90
2023-04-08T06:32:26.745Z,99.90
2023-04-08T06:34:53.448Z,99.90
2023-04-08T06:37:20.270Z,99.90
2023-04-08T06:39:46.984Z,99.90
2023-04-08T06:42:13.723Z,99.90
2023-04-08T06:44:40.471Z,99.90
2023-04-08T06:47:07.711Z,99.90
2023-04-08T06:49:34.416Z,99.90
2023-04-08T06:52:01.775Z,99.90
2023-04-08T06:54:28.531Z,99.90
2023-04-08T06:56:55.645Z,99.90
2023-04-08T06:59:22.356Z,99.90
2023-04-08T07:01:49.241Z,99.90
2023-04-08T07:04:16.079Z,99.90
2023-04-08T07:06:42.888Z,99.90
2023-04-08T07:09:09.606Z,99.90
2023-04-08T07:11:36.709Z,99.90
2023-04-08T07:14:03.453Z,99.90
2023-04-08T07:16:30.406Z,99.90
2023-04-08T07:18:57.977Z,99.90
2023-04-08T07:21:24.784Z,99.90
2023-04-08T07:23:51.562Z,99.90
2023-04-08T07:26:18.656Z,99.90
2023-04-08T07:28:45.604Z,99.90
2023-04-08T07:31:16.876Z,99.90
2023-04-08T07:33:44.478Z,99.90
2023-04-08T07:36:12.457Z,99.90
2023-04-08T07:38:39.924Z,99.90
2023-04-08T07:41:06.786Z,99.90
2023-04-08T07:43:34.661Z,99.90
2023-04-08T07:46:04.980Z,99.90
2023-04-08T07:48:32.661Z,99.90
2023-04-08T07:51:09.966Z,99.90
2023-04-08T07:53:38.730Z,99.90
2023-04-08T07:56:11.791Z,99.90
2023-04-08T07:58:40.469Z,99.90
2023-04-08T08:01:22.087Z,99.90
2023-04-08T08:03:50.022Z,99.90
2023-04-08T08:06:16.975Z,99.90
2023-04-08T08:08:43.814Z,99.90
2023-04-08T08:11:10.607Z,99.90
2023-04-08T08:13:37.411Z,99.90
2023-04-08T08:16:04.257Z,99.90
2023-04-08T08:18:31.145Z,99.90
2023-04-08T08:20:57.875Z,99.90
2023-04-08T08:23:24.700Z,99.90
2023-04-08T08:25:59.753Z,99.90
2023-04-08T08:28:26.506Z,99.90
2023-04-08T08:30:53.401Z,99.90
2023-04-08T08:33:20.427Z,99.90
2023-04-08T08:35:47.233Z,99.90
2023-04-08T08:38:14.196Z,99.90
2023-04-08T08:40:41.109Z,99.90
2023-04-08T08:43:07.810Z,99.90
2023-04-08T08:45:34.527Z,99.90
2023-04-08T08:48:01.338Z,99.90
2023-04-08T08:50:28.240Z,99.90
2023-04-08T08:52:54.980Z,99.90
2023-04-08T08:55:41.295Z,99.90
2023-04-08T08:58:08.897Z,99.90
2023-04-08T09:00:37.263Z,99.90
2023-04-08T09:03:24.169Z,99.90
2023-04-08T09:05:59.476Z,99.90
2023-04-08T09:08:39.287Z,99.90
2023-04-08T09:11:17.016Z,99.90
2023-04-08T09:13:44.893Z,99.90
2023-04-08T09:16:14.916Z,99.90
2023-04-08T09:18:44.565Z,99.90
2023-04-08T09:21:12.702Z,99.90
2023-04-08T09:23:43.595Z,99.90
2023-04-08T09:26:31.517Z,99.90
2023-04-08T09:29:14.238Z,99.90
2023-04-08T09:31:47.214Z,99.90
2023-04-08T09:34:16.692Z,99.90
2023-04-08T09:36:44.650Z,99.90
2023-04-08T09:39:11.455Z,99.90
2023-04-08T09:41:39.196Z,99.90
2023-04-08T09:44:09.504Z,99.90
2023-04-08T09:46:54.371Z,99.90
2023-04-08T09:49:21.112Z,99.90
2023-04-08T09:52:07.771Z,99.90
2023-04-08T09:54:53.441Z,99.90
2023-04-08T09:57:51.604Z,99.90
2023-04-08T10:00:19.228Z,99.90
2023-04-08T10:03:06.335Z,99.90
2023-04-08T10:05:37.689Z,99.90
2023-04-08T10:08:06.280Z,99.90
2023-04-08T10:10:39.696Z,99.90
2023-04-08T10:13:07.882Z,99.90
2023-04-08T10:15:36.835Z,99.90
2023-04-08T10:18:04.560Z,99.90
2023-04-08T10:20:34.471Z,99.90
2023-04-08T10:23:04.579Z,99.90
2023-04-08T10:25:35.636Z,99.90
2023-04-08T10:28:22.926Z,99.90
2023-04-08T10:30:54.662Z,99.90
2023-04-08T10:33:29.541Z,99.90
2023-04-08T10:36:03.001Z,99.90
2023-04-08T10:38:29.790Z,99.90
2023-04-08T10:40:56.659Z,99.90
2023-04-08T10:43:24.167Z,99.90
2023-04-08T10:45:53.568Z,99.90
2023-04-08T10:48:22.381Z,99.90
2023-04-08T10:51:02.307Z,99.90
2023-04-08T10:53:33.685Z,99.90
2023-04-08T10:56:04.971Z,99.90
2023-04-08T10:58:31.735Z,99.90
2023-04-08T11:01:05.043Z,99.90
2023-04-08T11:03:37.082Z,99.90
2023-04-08T11:06:04.698Z,99.90
2023-04-08T11:08:33.048Z,99.90
2023-04-08T11:11:04.229Z,99.90
2023-04-08T11:13:31.752Z,99.90
2023-04-08T11:16:00.023Z,99.90
2023-04-08T11:18:27.370Z,99.90
2023-04-08T11:20:54.518Z,99.90
2023-04-08T11:23:22.924Z,99.90
2023-04-08T11:25:49.880Z,99.90
2023-04-08T11:28:17.044Z,99.90
2023-04-08T11:30:44.240Z,99.90
2023-04-08T11:33:11.241Z,99.90
2023-04-08T11:35:42.770Z,99.90
2023-04-08T11:38:10.701Z,99.90
2023-04-08T11:40:37.913Z,99.90
2023-04-08T11:43:11.677Z,99.90
2023-04-08T11:45:40.315Z,99.90
2023-04-08T11:48:14.995Z,99.90
2023-04-08T11:50:42.475Z,99.90
2023-04-08T11:53:23.457Z,99.90
2023-04-08T11:55:50.264Z,99.90
2023-04-08T11:58:17.280Z,99.90
2023-04-08T12:00:45.693Z,99.90
2023-04-08T12:03:13.555Z,99.90
2023-04-08T12:05:40.765Z,99.90
2023-04-08T12:08:07.566Z,98.90
2023-04-08T12:10:34.345Z,98.40
2023-04-08T12:13:01.084Z,97.80
2023-04-08T12:15:28.040Z,98.00
2023-04-08T12:17:54.880Z,97.50
2023-04-08T12:20:21.675Z,96.50
2023-04-08T12:22:48.400Z,97.10
2023-04-08T12:25:15.477Z,97.60
2023-04-08T12:27:42.203Z,96.50
2023-04-08T12:30:09.691Z,96.90
2023-04-08T12:32:36.462Z,97.00
2023-04-08T12:35:03.296Z,97.40
2023-04-08T12:37:30.392Z,96.40
2023-04-08T12:39:57.251Z,96.60
2023-04-08T12:42:24.129Z,96.90
2023-04-08T12:44:50.910Z,96.60
2023-04-08T12:47:17.624Z,96.20
2023-04-08T12:49:49.293Z,96.40
2023-04-08T12:52:16.702Z,96.90
2023-04-08T12:54:43.453Z,96.60
2023-04-08T12:57:10.228Z,95.80
2023-04-08T12:59:38.058Z,96.30
2023-04-08T13:02:04.954Z,95.30
2023-04-08T13:04:31.739Z,95.20
2023-04-08T13:06:59.644Z,95.30
2023-04-08T13:09:26.474Z,95.20
2023-04-08T13:11:53.297Z,95.60
2023-04-08T13:14:20.029Z,95.00
2023-04-08T13:16:46.873Z,94.30
2023-04-08T13:19:13.844Z,94.50
2023-04-08T13:21:40.576Z,93.80
2023-04-08T13:24:07.261Z,93.80
2023-04-08T13:26:34.005Z,94.00
2023-04-08T13:29:01.109Z,93.60
2023-04-08T13:31:28.154Z,94.20
2023-04-08T13:33:58.026Z,93.40
2023-04-08T13:36:25.948Z,92.70
2023-04-08T13:38:52.880Z,91.90
2023-04-08T13:41:21.263Z,92.90
2023-04-08T13:43:47.980Z,92.60
2023-04-08T13:46:14.910Z,92.20
2023-04-08T13:48:41.935Z,92.20
2023-04-08T13:51:09.140Z,91.70
2023-04-08T13:53:36.351Z,92.20
2023-04-08T13:56:03.069Z,91.70
2023-04-08T13:58:29.999Z,91.90
2023-04-08T14:00:57.199Z,90.70
2023-04-08T14:03:24.074Z,91.20
2023-04-08T14:05:53.767Z,91.30
2023-04-08T14:08:25.351Z,91.10
2023-04-08T14:10:55.842Z,91.50
2023-04-08T14:13:22.589Z,91.00
2023-04-08T14:15:49.826Z,90.10
2023-04-08T14:18:19.288Z,89.10
2023-04-08T14:20:46.019Z,89.40
2023-04-08T14:23:13.573Z,89.80
2023-04-08T14:25:40.850Z,88.60
2023-04-08T14:28:08.014Z,90.20
2023-04-08T14:30:36.096Z,91.20
2023-04-08T14:33:04.692Z,89.80
2023-04-08T14:35:31.543Z,91.40
2023-04-08T14:37:58.664Z,90.20
2023-04-08T14:40:25.438Z,89.70
2023-04-08T14:42:52.244Z,89.50
2023-04-08T14:45:19.048Z,89.40
2023-04-08T14:47:46.405Z,90.00
2023-04-08T14:50:13.122Z,90.50
2023-04-08T14:52:39.897Z,90.80
2023-04-08T14:55:07.121Z,91.20
2023-04-08T14:57:33.999Z,91.30
2023-04-08T15:00:00.766Z,91.80
2023-04-08T15:02:27.659Z,91.20
2023-04-08T15:04:54.662Z,91.00
2023-04-08T15:07:21.482Z,90.90
2023-04-08T15:09:48.240Z,90.40
2023-04-08T15:12:14.950Z,90.90
2023-04-08T15:14:41.622Z,90.60
2023-04-08T15:17:10.169Z,91.00
2023-04-08T15:19:36.926Z,91.10
2023-04-08T15:22:03.645Z,91.40
2023-04-08T15:24:30.352Z,91.40
2023-04-08T15:26:57.265Z,90.40
2023-04-08T15:29:24.472Z,90.30
2023-04-08T15:31:51.246Z,90.70
2023-04-08T15:34:18.041Z,91.20
2023-04-08T15:36:45.390Z,91.20
2023-04-08T15:39:12.158Z,91.40
2023-04-08T15:41:38.938Z,91.70
2023-04-08T15:44:05.726Z,92.20
2023-04-08T15:46:33.022Z,91.90
2023-04-08T15:49:01.374Z,91.90
2023-04-08T15:51:28.666Z,92.30
2023-04-08T15:53:55.391Z,92.20
2023-04-08T15:56:22.431Z,92.70
2023-04-08T15:58:49.514Z,92.90
2023-04-08T16:01:18.649Z,92.70
2023-04-08T16:03:45.836Z,92.70
2023-04-08T16:06:12.644Z,92.80
2023-04-08T16:08:39.935Z,93.40
2023-04-08T16:11:08.079Z,93.70
2023-04-08T16:13:35.138Z,93.70
2023-04-08T16:16:02.501Z,93.50
2023-04-08T16:18:29.794Z,93.80
2023-04-08T16:20:57.034Z,93.70
2023-04-08T16:23:24.058Z,93.90
2023-04-08T16:25:52.073Z,93.40
2023-04-08T16:28:18.944Z,93.70
2023-04-08T16:30:47.806Z,93.50
2023-04-08T16:33:14.941Z,94.00
2023-04-08T16:35:41.749Z,93.70
2023-04-08T16:38:08.523Z,93.80
2023-04-08T16:40:35.474Z,93.90
2023-04-08T16:43:04.005Z,93.70
2023-04-08T16:45:31.349Z,93.90
2023-04-08T16:47:58.686Z,93.60
2023-04-08T16:50:25.942Z,93.90
2023-04-08T16:52:52.717Z,93.70
2023-04-08T16:55:19.756Z,93.90
2023-04-08T16:57:46.759Z,94.10
2023-04-08T17:00:13.857Z,94.30
2023-04-08T17:02:40.807Z,93.90
2023-04-08T17:05:08.171Z,94.40
2023-04-08T17:07:34.914Z,94.40
2023-04-08T17:10:01.779Z,94.50
2023-04-08T17:12:29.056Z,94.40
2023-04-08T17:14:55.842Z,94.40
2023-04-08T17:17:22.623Z,94.50
2023-04-08T17:19:49.528Z,94.60
2023-04-08T17:22:16.411Z,94.80
2023-04-08T17:24:47.087Z,94.60
2023-04-08T17:27:14.636Z,95.00
2023-04-08T17:29:41.470Z,95.20
2023-04-08T17:32:08.365Z,95.10
2023-04-08T17:34:35.239Z,95.40
2023-04-08T17:37:02.136Z,95.60
2023-04-08T17:39:30.203Z,95.80
2023-04-08T17:41:57.467Z,96.00
2023-04-08T17:44:29.706Z,96.10
2023-04-08T17:46:56.821Z,96.30
2023-04-08T17:49:23.885Z,96.50
2023-04-08T17:51:50.826Z,96.60
2023-04-08T17:54:17.965Z,96.80
2023-04-08T17:56:45.821Z,96.90
2023-04-08T17:59:13.375Z,97.00
2023-04-08T18:01:40.339Z,97.10
2023-04-08T18:04:08.341Z,97.20
2023-04-08T18:06:35.615Z,97.30
2023-04-08T18:09:05.244Z,97.40
2023-04-08T18:11:31.971Z,97.50
2023-04-08T18:13:58.678Z,97.50
2023-04-08T18:16:25.560Z,97.70
2023-04-08T18:18:52.390Z,97.70
2023-04-08T18:21:19.201Z,97.80
2023-04-08T18:23:49.459Z,97.90
2023-04-08T18:26:16.464Z,98.00
2023-04-08T18:28:43.270Z,98.10
2023-04-08T18:31:10.230Z,98.20
2023-04-08T18:33:38.940Z,98.30
2023-04-08T18:36:10.185Z,98.40
2023-04-08T18:38:37.120Z,98.40
2023-04-08T18:41:04.400Z,98.50
2023-04-08T18:43:31.717Z,98.60
2023-04-08T18:45:58.940Z,98.60
2023-04-08T18:48:25.803Z,98.70
2023-04-08T18:50:52.849Z,98.70
2023-04-08T18:53:19.925Z,99.10
2023-04-08T18:55:46.663Z,98.90
2023-04-08T18:58:13.600Z,98.90
2023-04-08T19:00:41.497Z,99.00
2023-04-08T19:03:10.305Z,99.10
2023-04-08T19:05:37.783Z,99.20
2023-04-08T19:08:05.233Z,99.20
2023-04-08T19:10:33.694Z,99.30
2023-04-08T19:13:01.550Z,99.30
2023-04-08T19:15:31.528Z,99.30
2023-04-08T19:17:59.171Z,99.40
2023-04-08T19:20:27.159Z,99.40
2023-04-08T19:22:53.992Z,99.50
2023-04-08T19:25:20.946Z,99.50
2023-04-08T19:27:47.736Z,99.60
2023-04-08T19:30:14.590Z,99.60
2023-04-08T19:32:43.050Z,99.90
2023-04-08T19:35:12.219Z,99.70
2023-04-08T19:37:39.352Z,99.70
2023-04-08T19:40:08.091Z,99.70
2023-04-08T19:42:35.006Z,99.80
2023-04-08T19:45:02.148Z,99.80
2023-04-08T19:47:29.554Z,99.80
2023-04-08T19:49:58.179Z,99.80
2023-04-08T19:52:25.600Z,99.90
2023-04-08T19:54:53.123Z,99.90
2023-04-08T19:57:20.644Z,99.90
2023-04-08T19:59:50.099Z,99.90
2023-04-08T20:02:17.050Z,99.90
2023-04-08T20:04:45.610Z,99.90
2023-04-08T20:07:13.232Z,99.90
2023-04-08T20:09:39.992Z,99.90
2023-04-08T20:12:06.760Z,99.90
2023-04-08T20:14:35.703Z,99.90
2023-04-08T20:17:02.682Z,99.90
2023-04-08T20:19:29.460Z,99.90
2023-04-08T20:21:57.326Z,99.90
2023-04-08T20:24:24.044Z,99.90
2023-04-08T20:26:50.816Z,99.90
2023-04-08T20:29:17.523Z,99.90
2023-04-08T20:31:47.136Z,99.90
2023-04-08T20:34:14.027Z,99.90
2023-04-08T20:36:41.110Z,99.90
2023-04-08T20:39:11.041Z,99.90
2023-04-08T20:41:38.062Z,99.90
2023-04-08T20:44:09.731Z,99.90
2023-04-08T20:46:37.852Z,99.90
2023-04-08T20:49:05.674Z,99.90
2023-04-08T20:51:35.620Z,99.90
2023-04-08T20:54:02.406Z,99.90
2023-04-08T20:56:29.521Z,99.90
2023-04-08T20:58:58.138Z,99.90
2023-04-08T21:01:26.586Z,99.90
2023-04-08T21:03:53.379Z,99.90
2023-04-08T21:06:20.885Z,99.90
2023-04-08T21:08:48.129Z,99.90
2023-04-08T21:11:15.527Z,99.90
2023-04-08T21:13:42.760Z,99.90
2023-04-08T21:16:09.688Z,99.90
2023-04-08T21:18:38.613Z,99.90
2023-04-08T21:21:05.531Z,99.90
2023-04-08T21:23:32.263Z,99.90
2023-04-08T21:25:59.399Z,99.90
2023-04-08T21:28:27.120Z,99.90
2023-04-08T21:30:54.836Z,99.90
2023-04-08T21:33:21.956Z,99.90
2023-04-08T21:35:48.665Z,99.90
2023-04-08T21:38:16.216Z,99.90
2023-04-08T21:40:43.019Z,99.90
2023-04-08T21:43:09.840Z,99.90
2023-04-08T21:45:36.564Z,99.90
2023-04-08T21:48:03.325Z,99.90
2023-04-08T21:50:31.305Z,99.90
2023-04-08T21:52:58.041Z,99.90
2023-04-08T21:55:25.738Z,99.90
2023-04-08T21:57:52.424Z,99.90
2023-04-08T22:00:19.476Z,99.90
2023-04-08T22:02:46.454Z,99.90
2023-04-08T22:05:13.725Z,99.90
2023-04-08T22:07:40.706Z,99.90
2023-04-08T22:10:08.060Z,99.90
2023-04-08T22:12:34.938Z,99.90
2023-04-08T22:15:01.782Z,99.90
2023-04-08T22:17:28.570Z,99.90
2023-04-08T22:19:55.892Z,99.90
2023-04-08T22:22:22.677Z,99.90
2023-04-08T22:24:49.416Z,99.90
2023-04-08T22:27:16.549Z,99.90
2023-04-08T22:29:43.292Z,99.90
2023-04-08T22:32:10.470Z,99.90
2023-04-08T22:34:37.196Z,99.90
2023-04-08T22:37:03.920Z,99.90
2023-04-08T22:39:30.720Z,99.90
2023-04-08T22:41:57.818Z,99.90
2023-04-08T22:44:24.625Z,99.90
2023-04-08T22:46:51.600Z,99.90
2023-04-08T22:49:18.345Z,99.90
2023-04-08T22:51:45.107Z,99.90
2023-04-08T22:54:11.936Z,99.90
2023-04-08T22:56:38.890Z,99.90
2023-04-08T22:59:05.648Z,99.90
2023-04-08T23:01:32.672Z,99.90
2023-04-08T23:03:59.557Z,99.90
2023-04-08T23:06:27.328Z,99.90
2023-04-08T23:08:54.110Z,99.90
2023-04-08T23:11:21.564Z,99.90
2023-04-08T23:13:48.402Z,99.90
2023-04-08T23:16:15.505Z,99.90
2023-04-08T23:18:42.215Z,99.90
2023-04-08T23:21:08.946Z,99.90
2023-04-08T23:23:35.649Z,99.90
2023-04-08T23:26:02.374Z,99.90
2023-04-08T23:28:29.214Z,99.90
2023-04-08T23:30:56.483Z,99.90
2023-04-08T23:33:23.248Z,99.90
2023-04-08T23:35:50.045Z,99.90
2023-04-08T23:38:16.837Z,99.90
2023-04-08T23:40:43.600Z,99.90
2023-04-08T23:43:10.364Z,99.90
2023-04-08T23:45:37.678Z,99.90
2023-04-08T23:48:04.685Z,99.90
2023-04-08T23:50:31.414Z,99.90
2023-04-08T23:52:58.141Z,99.90
2023-04-08T23:55:24.934Z,99.90
2023-04-08T23:57:53.676Z,99.90
